sensor_id;sensor_type;location;lat;lon;timestamp;P1;durP1;ratioP1;P2;durP2;ratioP2
35290;SDS011;21411;50.024;19.220;2023-05-07T00:00:57;20.40;;;18.10;;
35290;SDS011;21411;50.024;19.220;2023-05-07T00:03:25;17.90;;;15.70;;
35290;SDS011;21411;50.024;19.220;2023-05-07T00:05:52;18.00;;;16.10;;
35290;SDS011;21411;50.024;19.220;2023-05-07T00:08:21;19.50;;;16.00;;
35290;SDS011;21411;50.024;19.220;2023-05-07T00:10:48;17.50;;;15.80;;
35290;SDS011;21411;50.024;19.220;2023-05-07T00:13:15;17.70;;;15.90;;
35290;SDS011;21411;50.024;19.220;2023-05-07T00:15:41;19.80;;;17.80;;
35290;SDS011;21411;50.024;19.220;2023-05-07T00:18:08;19.10;;;17.10;;
35290;SDS011;21411;50.024;19.220;2023-05-07T00:20:34;18.50;;;16.70;;
35290;SDS011;21411;50.024;19.220;2023-05-07T00:23:01;19.20;;;17.00;;
35290;SDS011;21411;50.024;19.220;2023-05-07T00:25:27;19.80;;;17.70;;
35290;SDS011;21411;50.024;19.220;2023-05-07T00:27:54;20.20;;;17.90;;
35290;SDS011;21411;50.024;19.220;2023-05-07T00:30:20;21.10;;;17.90;;
35290;SDS011;21411;50.024;19.220;2023-05-07T00:32:47;19.40;;;17.40;;
35290;SDS011;21411;50.024;19.220;2023-05-07T00:35:15;19.30;;;17.30;;
35290;SDS011;21411;50.024;19.220;2023-05-07T00:37:41;18.90;;;17.00;;
35290;SDS011;21411;50.024;19.220;2023-05-07T00:40:08;19.20;;;17.10;;
35290;SDS011;21411;50.024;19.220;2023-05-07T00:42:35;19.90;;;18.00;;
35290;SDS011;21411;50.024;19.220;2023-05-07T00:45:01;20.10;;;18.10;;
35290;SDS011;21411;50.024;19.220;2023-05-07T00:47:28;18.80;;;17.00;;
35290;SDS011;21411;50.024;19.220;2023-05-07T00:49:55;19.90;;;17.90;;
35290;SDS011;21411;50.024;19.220;2023-05-07T00:52:23;20.70;;;18.60;;
35290;SDS011;21411;50.024;19.220;2023-05-07T00:54:52;22.80;;;20.50;;
35290;SDS011;21411;50.024;19.220;2023-05-07T00:57:19;23.10;;;20.30;;
35290;SDS011;21411;50.024;19.220;2023-05-07T00:59:48;23.10;;;20.40;;
35290;SDS011;21411;50.024;19.220;2023-05-07T01:02:14;21.90;;;19.70;;
35290;SDS011;21411;50.024;19.220;2023-05-07T01:04:41;23.00;;;20.60;;
35290;SDS011;21411;50.024;19.220;2023-05-07T01:07:08;23.00;;;20.70;;
35290;SDS011;21411;50.024;19.220;2023-05-07T01:09:34;23.70;;;20.80;;
35290;SDS011;21411;50.024;19.220;2023-05-07T01:12:03;22.50;;;20.10;;
35290;SDS011;21411;50.024;19.220;2023-05-07T01:14:30;23.90;;;21.40;;
35290;SDS011;21411;50.024;19.220;2023-05-07T01:16:59;24.30;;;21.10;;
35290;SDS011;21411;50.024;19.220;2023-05-07T01:19:25;22.60;;;20.20;;
35290;SDS011;21411;50.024;19.220;2023-05-07T01:21:53;24.30;;;21.70;;
35290;SDS011;21411;50.024;19.220;2023-05-07T01:24:27;22.60;;;20.20;;
35290;SDS011;21411;50.024;19.220;2023-05-07T01:26:54;22.40;;;19.80;;
35290;SDS011;21411;50.024;19.220;2023-05-07T01:29:20;21.50;;;19.40;;
35290;SDS011;21411;50.024;19.220;2023-05-07T01:31:47;22.40;;;20.20;;
35290;SDS011;21411;50.024;19.220;2023-05-07T01:34:14;22.00;;;19.70;;
35290;SDS011;21411;50.024;19.220;2023-05-07T01:36:43;21.60;;;19.40;;
35290;SDS011;21411;50.024;19.220;2023-05-07T01:39:11;22.50;;;20.30;;
35290;SDS011;21411;50.024;19.220;2023-05-07T01:41:38;20.30;;;18.40;;
35290;SDS011;21411;50.024;19.220;2023-05-07T01:44:05;22.50;;;20.30;;
35290;SDS011;21411;50.024;19.220;2023-05-07T01:46:32;18.60;;;16.70;;
35290;SDS011;21411;50.024;19.220;2023-05-07T01:48:59;20.30;;;18.10;;
35290;SDS011;21411;50.024;19.220;2023-05-07T01:51:26;20.30;;;18.30;;
35290;SDS011;21411;50.024;19.220;2023-05-07T01:53:53;20.70;;;18.60;;
35290;SDS011;21411;50.024;19.220;2023-05-07T01:56:19;18.40;;;16.50;;
35290;SDS011;21411;50.024;19.220;2023-05-07T01:58:47;19.10;;;17.20;;
35290;SDS011;21411;50.024;19.220;2023-05-07T02:01:14;18.90;;;16.90;;
35290;SDS011;21411;50.024;19.220;2023-05-07T02:03:40;18.30;;;16.50;;
35290;SDS011;21411;50.024;19.220;2023-05-07T02:06:07;17.80;;;16.10;;
35290;SDS011;21411;50.024;19.220;2023-05-07T02:08:33;18.70;;;16.60;;
35290;SDS011;21411;50.024;19.220;2023-05-07T02:11:00;19.60;;;17.50;;
35290;SDS011;21411;50.024;19.220;2023-05-07T02:13:29;26.60;;;20.60;;
35290;SDS011;21411;50.024;19.220;2023-05-07T02:15:57;24.70;;;21.10;;
35290;SDS011;21411;50.024;19.220;2023-05-07T02:18:23;27.80;;;22.20;;
35290;SDS011;21411;50.024;19.220;2023-05-07T02:20:50;26.90;;;22.30;;
35290;SDS011;21411;50.024;19.220;2023-05-07T02:23:17;25.90;;;21.40;;
35290;SDS011;21411;50.024;19.220;2023-05-07T02:25:43;24.60;;;20.90;;
35290;SDS011;21411;50.024;19.220;2023-05-07T02:28:10;24.10;;;21.50;;
35290;SDS011;21411;50.024;19.220;2023-05-07T02:30:36;25.50;;;20.50;;
35290;SDS011;21411;50.024;19.220;2023-05-07T02:33:03;25.70;;;20.90;;
35290;SDS011;21411;50.024;19.220;2023-05-07T02:35:30;25.00;;;21.20;;
35290;SDS011;21411;50.024;19.220;2023-05-07T02:37:56;25.40;;;21.50;;
35290;SDS011;21411;50.024;19.220;2023-05-07T02:40:23;25.50;;;22.10;;
35290;SDS011;21411;50.024;19.220;2023-05-07T02:42:49;23.50;;;21.00;;
35290;SDS011;21411;50.024;19.220;2023-05-07T02:45:15;24.90;;;20.40;;
35290;SDS011;21411;50.024;19.220;2023-05-07T02:47:42;22.00;;;19.60;;
35290;SDS011;21411;50.024;19.220;2023-05-07T02:50:09;25.50;;;20.80;;
35290;SDS011;21411;50.024;19.220;2023-05-07T02:52:35;24.40;;;20.70;;
35290;SDS011;21411;50.024;19.220;2023-05-07T02:55:02;25.50;;;22.10;;
35290;SDS011;21411;50.024;19.220;2023-05-07T02:57:28;24.80;;;21.00;;
35290;SDS011;21411;50.024;19.220;2023-05-07T02:59:55;24.70;;;20.30;;
35290;SDS011;21411;50.024;19.220;2023-05-07T03:02:24;22.60;;;19.70;;
35290;SDS011;21411;50.024;19.220;2023-05-07T03:04:51;20.80;;;18.60;;
35290;SDS011;21411;50.024;19.220;2023-05-07T03:07:17;22.30;;;19.20;;
35290;SDS011;21411;50.024;19.220;2023-05-07T03:09:44;21.00;;;18.70;;
35290;SDS011;21411;50.024;19.220;2023-05-07T03:12:11;21.90;;;19.50;;
35290;SDS011;21411;50.024;19.220;2023-05-07T03:14:38;19.80;;;17.70;;
35290;SDS011;21411;50.024;19.220;2023-05-07T03:17:04;19.20;;;17.20;;
35290;SDS011;21411;50.024;19.220;2023-05-07T03:19:31;20.50;;;18.20;;
35290;SDS011;21411;50.024;19.220;2023-05-07T03:21:57;20.10;;;17.80;;
35290;SDS011;21411;50.024;19.220;2023-05-07T03:24:24;19.70;;;17.60;;
35290;SDS011;21411;50.024;19.220;2023-05-07T03:26:50;20.80;;;18.40;;
35290;SDS011;21411;50.024;19.220;2023-05-07T03:29:17;20.60;;;18.60;;
35290;SDS011;21411;50.024;19.220;2023-05-07T03:31:43;22.00;;;19.60;;
35290;SDS011;21411;50.024;19.220;2023-05-07T03:34:10;22.70;;;20.30;;
35290;SDS011;21411;50.024;19.220;2023-05-07T03:36:36;23.10;;;20.40;;
35290;SDS011;21411;50.024;19.220;2023-05-07T03:39:03;20.60;;;17.70;;
35290;SDS011;21411;50.024;19.220;2023-05-07T03:41:29;19.80;;;17.50;;
35290;SDS011;21411;50.024;19.220;2023-05-07T03:43:56;19.30;;;17.20;;
35290;SDS011;21411;50.024;19.220;2023-05-07T03:46:22;22.30;;;17.10;;
35290;SDS011;21411;50.024;19.220;2023-05-07T03:48:49;19.10;;;17.20;;
35290;SDS011;21411;50.024;19.220;2023-05-07T03:51:15;17.50;;;15.70;;
35290;SDS011;21411;50.024;19.220;2023-05-07T03:53:42;17.60;;;15.80;;
35290;SDS011;21411;50.024;19.220;2023-05-07T03:56:08;17.30;;;15.60;;
35290;SDS011;21411;50.024;19.220;2023-05-07T03:58:37;18.60;;;16.80;;
35290;SDS011;21411;50.024;19.220;2023-05-07T04:01:04;17.30;;;15.60;;
35290;SDS011;21411;50.024;19.220;2023-05-07T04:03:30;16.40;;;14.80;;
35290;SDS011;21411;50.024;19.220;2023-05-07T04:05:57;15.50;;;14.00;;
35290;SDS011;21411;50.024;19.220;2023-05-07T04:08:23;15.00;;;13.40;;
35290;SDS011;21411;50.024;19.220;2023-05-07T04:10:54;14.30;;;12.90;;
35290;SDS011;21411;50.024;19.220;2023-05-07T04:13:21;12.40;;;11.30;;
35290;SDS011;21411;50.024;19.220;2023-05-07T04:15:48;12.10;;;10.80;;
35290;SDS011;21411;50.024;19.220;2023-05-07T04:18:15;11.80;;;10.60;;
35290;SDS011;21411;50.024;19.220;2023-05-07T04:20:41;12.10;;;10.90;;
35290;SDS011;21411;50.024;19.220;2023-05-07T04:23:08;12.40;;;11.00;;
35290;SDS011;21411;50.024;19.220;2023-05-07T04:25:34;12.90;;;11.60;;
35290;SDS011;21411;50.024;19.220;2023-05-07T04:28:01;12.60;;;11.30;;
35290;SDS011;21411;50.024;19.220;2023-05-07T04:30:27;13.30;;;10.90;;
35290;SDS011;21411;50.024;19.220;2023-05-07T04:32:54;12.30;;;11.10;;
35290;SDS011;21411;50.024;19.220;2023-05-07T04:35:20;12.10;;;11.00;;
35290;SDS011;21411;50.024;19.220;2023-05-07T04:37:47;11.70;;;10.60;;
35290;SDS011;21411;50.024;19.220;2023-05-07T04:40:14;12.80;;;11.50;;
35290;SDS011;21411;50.024;19.220;2023-05-07T04:42:40;13.10;;;11.90;;
35290;SDS011;21411;50.024;19.220;2023-05-07T04:45:07;12.80;;;11.50;;
35290;SDS011;21411;50.024;19.220;2023-05-07T04:47:34;13.20;;;12.00;;
35290;SDS011;21411;50.024;19.220;2023-05-07T04:50:01;14.10;;;12.80;;
35290;SDS011;21411;50.024;19.220;2023-05-07T04:52:27;15.70;;;14.20;;
35290;SDS011;21411;50.024;19.220;2023-05-07T04:54:54;16.10;;;14.50;;
35290;SDS011;21411;50.024;19.220;2023-05-07T04:57:20;16.60;;;15.10;;
35290;SDS011;21411;50.024;19.220;2023-05-07T04:59:47;16.80;;;15.10;;
35290;SDS011;21411;50.024;19.220;2023-05-07T05:02:14;18.30;;;15.80;;
35290;SDS011;21411;50.024;19.220;2023-05-07T05:04:41;18.10;;;16.00;;
35290;SDS011;21411;50.024;19.220;2023-05-07T05:07:08;14.90;;;12.90;;
35290;SDS011;21411;50.024;19.220;2023-05-07T05:09:34;16.60;;;13.70;;
35290;SDS011;21411;50.024;19.220;2023-05-07T05:12:01;18.60;;;14.20;;
35290;SDS011;21411;50.024;19.220;2023-05-07T05:14:28;16.00;;;14.30;;
35290;SDS011;21411;50.024;19.220;2023-05-07T05:16:55;19.60;;;15.90;;
35290;SDS011;21411;50.024;19.220;2023-05-07T05:19:22;17.80;;;14.80;;
35290;SDS011;21411;50.024;19.220;2023-05-07T05:21:48;16.80;;;14.20;;
35290;SDS011;21411;50.024;19.220;2023-05-07T05:24:15;21.70;;;14.60;;
35290;SDS011;21411;50.024;19.220;2023-05-07T05:26:41;15.90;;;13.30;;
35290;SDS011;21411;50.024;19.220;2023-05-07T05:29:08;16.60;;;13.40;;
35290;SDS011;21411;50.024;19.220;2023-05-07T05:31:34;13.40;;;11.90;;
35290;SDS011;21411;50.024;19.220;2023-05-07T05:34:02;14.80;;;12.50;;
35290;SDS011;21411;50.024;19.220;2023-05-07T05:36:28;12.60;;;11.00;;
35290;SDS011;21411;50.024;19.220;2023-05-07T05:38:55;15.40;;;11.80;;
35290;SDS011;21411;50.024;19.220;2023-05-07T05:41:21;16.10;;;11.50;;
35290;SDS011;21411;50.024;19.220;2023-05-07T05:43:48;14.70;;;10.60;;
35290;SDS011;21411;50.024;19.220;2023-05-07T05:46:15;11.00;;;9.90;;
35290;SDS011;21411;50.024;19.220;2023-05-07T05:48:41;13.40;;;10.10;;
35290;SDS011;21411;50.024;19.220;2023-05-07T05:51:08;10.50;;;9.30;;
35290;SDS011;21411;50.024;19.220;2023-05-07T05:53:34;11.10;;;9.60;;
35290;SDS011;21411;50.024;19.220;2023-05-07T05:56:01;13.70;;;10.10;;
35290;SDS011;21411;50.024;19.220;2023-05-07T05:58:27;14.00;;;10.20;;
35290;SDS011;21411;50.024;19.220;2023-05-07T06:00:54;14.00;;;9.80;;
35290;SDS011;21411;50.024;19.220;2023-05-07T06:03:21;16.90;;;10.10;;
35290;SDS011;21411;50.024;19.220;2023-05-07T06:05:47;12.40;;;9.20;;
35290;SDS011;21411;50.024;19.220;2023-05-07T06:08:13;11.80;;;9.60;;
35290;SDS011;21411;50.024;19.220;2023-05-07T06:10:40;12.00;;;8.10;;
35290;SDS011;21411;50.024;19.220;2023-05-07T06:13:07;11.00;;;6.90;;
35290;SDS011;21411;50.024;19.220;2023-05-07T06:15:34;8.70;;;6.90;;
35290;SDS011;21411;50.024;19.220;2023-05-07T06:18:00;15.30;;;7.80;;
35290;SDS011;21411;50.024;19.220;2023-05-07T06:20:27;9.80;;;6.60;;
35290;SDS011;21411;50.024;19.220;2023-05-07T06:22:53;8.90;;;6.80;;
35290;SDS011;21411;50.024;19.220;2023-05-07T06:25:20;7.20;;;5.90;;
35290;SDS011;21411;50.024;19.220;2023-05-07T06:27:46;7.90;;;5.90;;
35290;SDS011;21411;50.024;19.220;2023-05-07T06:30:12;9.20;;;6.00;;
35290;SDS011;21411;50.024;19.220;2023-05-07T06:32:40;10.50;;;6.70;;
35290;SDS011;21411;50.024;19.220;2023-05-07T06:35:07;7.40;;;5.80;;
35290;SDS011;21411;50.024;19.220;2023-05-07T06:37:34;5.90;;;5.30;;
35290;SDS011;21411;50.024;19.220;2023-05-07T06:40:00;7.60;;;5.50;;
35290;SDS011;21411;50.024;19.220;2023-05-07T06:42:27;8.30;;;6.00;;
35290;SDS011;21411;50.024;19.220;2023-05-07T06:44:53;8.90;;;6.20;;
35290;SDS011;21411;50.024;19.220;2023-05-07T06:47:20;7.50;;;6.10;;
35290;SDS011;21411;50.024;19.220;2023-05-07T06:49:46;7.80;;;5.40;;
35290;SDS011;21411;50.024;19.220;2023-05-07T06:52:12;6.00;;;5.00;;
35290;SDS011;21411;50.024;19.220;2023-05-07T06:54:39;7.20;;;5.20;;
35290;SDS011;21411;50.024;19.220;2023-05-07T06:57:06;8.90;;;5.50;;
35290;SDS011;21411;50.024;19.220;2023-05-07T06:59:32;6.70;;;5.70;;
35290;SDS011;21411;50.024;19.220;2023-05-07T07:01:59;6.50;;;5.60;;
35290;SDS011;21411;50.024;19.220;2023-05-07T07:04:25;7.00;;;5.50;;
35290;SDS011;21411;50.024;19.220;2023-05-07T07:06:53;6.20;;;5.60;;
35290;SDS011;21411;50.024;19.220;2023-05-07T07:09:20;6.30;;;5.10;;
35290;SDS011;21411;50.024;19.220;2023-05-07T07:11:46;4.80;;;4.40;;
35290;SDS011;21411;50.024;19.220;2023-05-07T07:14:13;6.70;;;4.10;;
35290;SDS011;21411;50.024;19.220;2023-05-07T07:16:40;4.70;;;4.30;;
35290;SDS011;21411;50.024;19.220;2023-05-07T07:19:07;5.30;;;4.80;;
35290;SDS011;21411;50.024;19.220;2023-05-07T07:21:33;6.30;;;5.00;;
35290;SDS011;21411;50.024;19.220;2023-05-07T07:24:00;8.80;;;5.80;;
35290;SDS011;21411;50.024;19.220;2023-05-07T07:26:26;5.50;;;3.70;;
35290;SDS011;21411;50.024;19.220;2023-05-07T07:28:53;6.20;;;4.80;;
35290;SDS011;21411;50.024;19.220;2023-05-07T07:31:19;5.70;;;4.30;;
35290;SDS011;21411;50.024;19.220;2023-05-07T07:33:46;5.90;;;4.40;;
35290;SDS011;21411;50.024;19.220;2023-05-07T07:36:12;4.30;;;3.80;;
35290;SDS011;21411;50.024;19.220;2023-05-07T07:38:38;4.00;;;3.60;;
35290;SDS011;21411;50.024;19.220;2023-05-07T07:41:05;4.90;;;4.40;;
35290;SDS011;21411;50.024;19.220;2023-05-07T07:43:34;4.40;;;3.70;;
35290;SDS011;21411;50.024;19.220;2023-05-07T07:46:01;5.00;;;4.50;;
35290;SDS011;21411;50.024;19.220;2023-05-07T07:48:28;4.80;;;4.10;;
35290;SDS011;21411;50.024;19.220;2023-05-07T07:50:54;5.00;;;4.60;;
35290;SDS011;21411;50.024;19.220;2023-05-07T07:53:21;6.00;;;4.10;;
35290;SDS011;21411;50.024;19.220;2023-05-07T07:55:47;4.90;;;4.50;;
35290;SDS011;21411;50.024;19.220;2023-05-07T07:58:14;5.60;;;5.00;;
35290;SDS011;21411;50.024;19.220;2023-05-07T08:00:40;5.50;;;4.20;;
35290;SDS011;21411;50.024;19.220;2023-05-07T08:03:09;4.10;;;3.80;;
35290;SDS011;21411;50.024;19.220;2023-05-07T08:05:36;5.10;;;4.60;;
35290;SDS011;21411;50.024;19.220;2023-05-07T08:08:04;4.70;;;4.30;;
35290;SDS011;21411;50.024;19.220;2023-05-07T08:10:32;4.00;;;3.70;;
35290;SDS011;21411;50.024;19.220;2023-05-07T08:13:00;5.30;;;4.70;;
35290;SDS011;21411;50.024;19.220;2023-05-07T08:15:29;5.00;;;4.40;;
35290;SDS011;21411;50.024;19.220;2023-05-07T08:17:56;4.50;;;4.10;;
35290;SDS011;21411;50.024;19.220;2023-05-07T08:20:29;5.50;;;4.80;;
35290;SDS011;21411;50.024;19.220;2023-05-07T08:22:55;5.70;;;5.10;;
35290;SDS011;21411;50.024;19.220;2023-05-07T08:25:22;5.50;;;5.00;;
35290;SDS011;21411;50.024;19.220;2023-05-07T08:27:48;5.70;;;5.10;;
35290;SDS011;21411;50.024;19.220;2023-05-07T08:30:15;5.00;;;4.40;;
35290;SDS011;21411;50.024;19.220;2023-05-07T08:32:42;3.80;;;3.40;;
35290;SDS011;21411;50.024;19.220;2023-05-07T08:35:08;3.40;;;3.10;;
35290;SDS011;21411;50.024;19.220;2023-05-07T08:37:35;3.20;;;2.90;;
35290;SDS011;21411;50.024;19.220;2023-05-07T08:40:01;3.70;;;3.20;;
35290;SDS011;21411;50.024;19.220;2023-05-07T08:42:28;3.30;;;3.00;;
35290;SDS011;21411;50.024;19.220;2023-05-07T08:44:56;3.60;;;3.30;;
35290;SDS011;21411;50.024;19.220;2023-05-07T08:47:30;3.10;;;2.90;;
35290;SDS011;21411;50.024;19.220;2023-05-07T08:50:11;3.80;;;2.70;;
35290;SDS011;21411;50.024;19.220;2023-05-07T08:52:38;3.80;;;2.60;;
35290;SDS011;21411;50.024;19.220;2023-05-07T08:55:06;2.70;;;2.50;;
35290;SDS011;21411;50.024;19.220;2023-05-07T08:57:33;3.30;;;2.70;;
35290;SDS011;21411;50.024;19.220;2023-05-07T09:00:01;2.90;;;2.50;;
35290;SDS011;21411;50.024;19.220;2023-05-07T09:02:29;3.30;;;3.10;;
35290;SDS011;21411;50.024;19.220;2023-05-07T09:04:55;2.90;;;2.50;;
35290;SDS011;21411;50.024;19.220;2023-05-07T09:07:22;2.80;;;2.50;;
35290;SDS011;21411;50.024;19.220;2023-05-07T09:09:48;2.80;;;2.60;;
35290;SDS011;21411;50.024;19.220;2023-05-07T09:12:16;3.30;;;3.00;;
35290;SDS011;21411;50.024;19.220;2023-05-07T09:14:44;3.10;;;2.70;;
35290;SDS011;21411;50.024;19.220;2023-05-07T09:17:12;2.90;;;2.70;;
35290;SDS011;21411;50.024;19.220;2023-05-07T09:19:39;2.90;;;2.60;;
35290;SDS011;21411;50.024;19.220;2023-05-07T09:22:05;3.20;;;2.60;;
35290;SDS011;21411;50.024;19.220;2023-05-07T09:24:35;2.60;;;2.30;;
35290;SDS011;21411;50.024;19.220;2023-05-07T09:27:04;2.60;;;2.40;;
35290;SDS011;21411;50.024;19.220;2023-05-07T09:29:31;1.90;;;1.80;;
35290;SDS011;21411;50.024;19.220;2023-05-07T09:32:07;3.80;;;2.30;;
35290;SDS011;21411;50.024;19.220;2023-05-07T09:34:34;2.60;;;2.40;;
35290;SDS011;21411;50.024;19.220;2023-05-07T09:37:02;2.50;;;2.30;;
35290;SDS011;21411;50.024;19.220;2023-05-07T09:39:42;2.90;;;2.60;;
35290;SDS011;21411;50.024;19.220;2023-05-07T09:42:13;3.10;;;2.90;;
35290;SDS011;21411;50.024;19.220;2023-05-07T09:44:43;3.20;;;2.90;;
35290;SDS011;21411;50.024;19.220;2023-05-07T09:47:10;2.30;;;2.10;;
35290;SDS011;21411;50.024;19.220;2023-05-07T09:49:40;3.30;;;3.00;;
35290;SDS011;21411;50.024;19.220;2023-05-07T09:52:14;2.80;;;2.40;;
35290;SDS011;21411;50.024;19.220;2023-05-07T09:54:41;4.20;;;3.90;;
35290;SDS011;21411;50.024;19.220;2023-05-07T09:57:12;6.50;;;5.80;;
35290;SDS011;21411;50.024;19.220;2023-05-07T09:59:41;8.30;;;7.60;;
35290;SDS011;21411;50.024;19.220;2023-05-07T10:02:09;8.50;;;7.70;;
35290;SDS011;21411;50.024;19.220;2023-05-07T10:04:36;7.90;;;7.30;;
35290;SDS011;21411;50.024;19.220;2023-05-07T10:07:03;6.90;;;6.30;;
35290;SDS011;21411;50.024;19.220;2023-05-07T10:09:31;6.20;;;5.60;;
35290;SDS011;21411;50.024;19.220;2023-05-07T10:11:58;5.50;;;5.00;;
35290;SDS011;21411;50.024;19.220;2023-05-07T10:14:26;5.30;;;4.90;;
35290;SDS011;21411;50.024;19.220;2023-05-07T10:16:54;6.30;;;5.20;;
35290;SDS011;21411;50.024;19.220;2023-05-07T10:19:21;4.50;;;4.20;;
35290;SDS011;21411;50.024;19.220;2023-05-07T10:21:54;4.70;;;4.30;;
35290;SDS011;21411;50.024;19.220;2023-05-07T10:24:26;3.80;;;3.50;;
35290;SDS011;21411;50.024;19.220;2023-05-07T10:26:57;3.70;;;3.40;;
35290;SDS011;21411;50.024;19.220;2023-05-07T10:29:32;5.10;;;4.60;;
35290;SDS011;21411;50.024;19.220;2023-05-07T10:34:53;4.90;;;4.50;;
35290;SDS011;21411;50.024;19.220;2023-05-07T10:39:49;5.60;;;5.10;;
35290;SDS011;21411;50.024;19.220;2023-05-07T10:42:16;5.40;;;4.90;;
35290;SDS011;21411;50.024;19.220;2023-05-07T10:44:42;5.70;;;5.30;;
35290;SDS011;21411;50.024;19.220;2023-05-07T10:47:09;5.10;;;4.60;;
35290;SDS011;21411;50.024;19.220;2023-05-07T10:52:13;5.20;;;4.80;;
35290;SDS011;21411;50.024;19.220;2023-05-07T10:54:42;5.00;;;4.60;;
35290;SDS011;21411;50.024;19.220;2023-05-07T11:03:04;6.50;;;6.00;;
35290;SDS011;21411;50.024;19.220;2023-05-07T11:05:32;6.40;;;5.80;;
35290;SDS011;21411;50.024;19.220;2023-05-07T11:08:00;6.90;;;6.30;;
35290;SDS011;21411;50.024;19.220;2023-05-07T11:13:14;5.50;;;5.10;;
35290;SDS011;21411;50.024;19.220;2023-05-07T11:15:42;6.60;;;6.00;;
35290;SDS011;21411;50.024;19.220;2023-05-07T11:18:11;5.60;;;5.10;;
35290;SDS011;21411;50.024;19.220;2023-05-07T11:20:58;6.40;;;5.80;;
35290;SDS011;21411;50.024;19.220;2023-05-07T11:26:08;7.10;;;6.50;;
35290;SDS011;21411;50.024;19.220;2023-05-07T11:28:40;6.60;;;6.10;;
35290;SDS011;21411;50.024;19.220;2023-05-07T11:31:08;6.50;;;6.00;;
35290;SDS011;21411;50.024;19.220;2023-05-07T11:33:36;7.60;;;6.90;;
35290;SDS011;21411;50.024;19.220;2023-05-07T11:36:03;7.30;;;6.70;;
35290;SDS011;21411;50.024;19.220;2023-05-07T11:38:33;6.20;;;5.60;;
35290;SDS011;21411;50.024;19.220;2023-05-07T11:41:02;6.80;;;6.20;;
35290;SDS011;21411;50.024;19.220;2023-05-07T11:43:31;6.90;;;6.20;;
35290;SDS011;21411;50.024;19.220;2023-05-07T11:48:52;9.10;;;6.80;;
35290;SDS011;21411;50.024;19.220;2023-05-07T11:51:19;8.90;;;8.20;;
35290;SDS011;21411;50.024;19.220;2023-05-07T11:53:48;9.20;;;8.30;;
35290;SDS011;21411;50.024;19.220;2023-05-07T11:56:15;8.40;;;7.70;;
35290;SDS011;21411;50.024;19.220;2023-05-07T11:58:43;8.50;;;7.80;;
35290;SDS011;21411;50.024;19.220;2023-05-07T12:01:12;9.30;;;8.50;;
35290;SDS011;21411;50.024;19.220;2023-05-07T12:03:40;9.70;;;8.60;;
35290;SDS011;21411;50.024;19.220;2023-05-07T12:06:08;9.80;;;8.70;;
35290;SDS011;21411;50.024;19.220;2023-05-07T12:08:36;9.30;;;8.50;;
35290;SDS011;21411;50.024;19.220;2023-05-07T12:11:06;8.70;;;7.90;;
35290;SDS011;21411;50.024;19.220;2023-05-07T12:16:00;8.10;;;7.30;;
35290;SDS011;21411;50.024;19.220;2023-05-07T12:18:29;7.60;;;6.60;;
35290;SDS011;21411;50.024;19.220;2023-05-07T12:20:56;8.00;;;7.20;;
35290;SDS011;21411;50.024;19.220;2023-05-07T12:23:23;7.90;;;7.00;;
35290;SDS011;21411;50.024;19.220;2023-05-07T12:25:50;8.50;;;7.70;;
35290;SDS011;21411;50.024;19.220;2023-05-07T12:28:17;8.70;;;7.90;;
35290;SDS011;21411;50.024;19.220;2023-05-07T12:30:46;9.40;;;8.60;;
35290;SDS011;21411;50.024;19.220;2023-05-07T12:33:23;9.60;;;8.80;;
35290;SDS011;21411;50.024;19.220;2023-05-07T12:35:52;8.80;;;8.10;;
35290;SDS011;21411;50.024;19.220;2023-05-07T12:38:20;8.50;;;7.80;;
35290;SDS011;21411;50.024;19.220;2023-05-07T12:40:47;9.60;;;8.70;;
35290;SDS011;21411;50.024;19.220;2023-05-07T12:43:20;9.80;;;9.00;;
35290;SDS011;21411;50.024;19.220;2023-05-07T12:45:50;9.30;;;8.50;;
35290;SDS011;21411;50.024;19.220;2023-05-07T12:48:19;11.00;;;9.90;;
35290;SDS011;21411;50.024;19.220;2023-05-07T12:50:53;8.80;;;8.00;;
35290;SDS011;21411;50.024;19.220;2023-05-07T12:53:21;8.60;;;7.90;;
35290;SDS011;21411;50.024;19.220;2023-05-07T12:55:50;8.70;;;8.00;;
35290;SDS011;21411;50.024;19.220;2023-05-07T12:58:18;9.30;;;8.40;;
35290;SDS011;21411;50.024;19.220;2023-05-07T13:00:50;9.60;;;8.80;;
35290;SDS011;21411;50.024;19.220;2023-05-07T13:03:24;7.90;;;7.30;;
35290;SDS011;21411;50.024;19.220;2023-05-07T13:05:52;8.90;;;8.00;;
35290;SDS011;21411;50.024;19.220;2023-05-07T13:08:26;8.90;;;8.10;;
35290;SDS011;21411;50.024;19.220;2023-05-07T13:10:57;10.40;;;9.40;;
35290;SDS011;21411;50.024;19.220;2023-05-07T13:13:26;9.60;;;8.80;;
35290;SDS011;21411;50.024;19.220;2023-05-07T13:15:52;10.20;;;8.20;;
35290;SDS011;21411;50.024;19.220;2023-05-07T13:18:19;8.50;;;7.70;;
35290;SDS011;21411;50.024;19.220;2023-05-07T13:20:45;7.60;;;7.00;;
35290;SDS011;21411;50.024;19.220;2023-05-07T13:23:12;8.10;;;7.30;;
35290;SDS011;21411;50.024;19.220;2023-05-07T13:25:38;8.50;;;7.70;;
35290;SDS011;21411;50.024;19.220;2023-05-07T13:28:05;8.50;;;7.50;;
35290;SDS011;21411;50.024;19.220;2023-05-07T13:30:31;7.90;;;7.10;;
35290;SDS011;21411;50.024;19.220;2023-05-07T13:32:58;7.10;;;6.50;;
35290;SDS011;21411;50.024;19.220;2023-05-07T13:35:24;6.90;;;6.20;;
35290;SDS011;21411;50.024;19.220;2023-05-07T13:37:51;7.70;;;7.00;;
35290;SDS011;21411;50.024;19.220;2023-05-07T13:40:18;6.90;;;6.30;;
35290;SDS011;21411;50.024;19.220;2023-05-07T13:42:45;7.10;;;6.50;;
35290;SDS011;21411;50.024;19.220;2023-05-07T13:45:11;7.50;;;6.80;;
35290;SDS011;21411;50.024;19.220;2023-05-07T13:47:40;6.30;;;5.70;;
35290;SDS011;21411;50.024;19.220;2023-05-07T13:50:08;5.50;;;5.00;;
35290;SDS011;21411;50.024;19.220;2023-05-07T13:52:35;6.60;;;5.40;;
35290;SDS011;21411;50.024;19.220;2023-05-07T13:55:01;6.10;;;5.60;;
35290;SDS011;21411;50.024;19.220;2023-05-07T13:57:28;6.40;;;5.80;;
35290;SDS011;21411;50.024;19.220;2023-05-07T13:59:54;6.50;;;5.90;;
35290;SDS011;21411;50.024;19.220;2023-05-07T14:02:21;6.30;;;5.80;;
35290;SDS011;21411;50.024;19.220;2023-05-07T14:04:48;6.60;;;5.70;;
35290;SDS011;21411;50.024;19.220;2023-05-07T14:07:14;6.70;;;5.90;;
35290;SDS011;21411;50.024;19.220;2023-05-07T14:09:41;6.30;;;5.70;;
35290;SDS011;21411;50.024;19.220;2023-05-07T14:12:07;5.80;;;5.20;;
35290;SDS011;21411;50.024;19.220;2023-05-07T14:14:34;4.90;;;4.50;;
35290;SDS011;21411;50.024;19.220;2023-05-07T14:17:01;5.80;;;5.30;;
35290;SDS011;21411;50.024;19.220;2023-05-07T14:19:27;5.80;;;5.10;;
35290;SDS011;21411;50.024;19.220;2023-05-07T14:21:54;5.50;;;5.00;;
35290;SDS011;21411;50.024;19.220;2023-05-07T14:24:20;5.00;;;4.60;;
35290;SDS011;21411;50.024;19.220;2023-05-07T14:26:47;5.50;;;4.80;;
35290;SDS011;21411;50.024;19.220;2023-05-07T14:29:13;6.40;;;5.00;;
35290;SDS011;21411;50.024;19.220;2023-05-07T14:31:42;5.50;;;5.00;;
35290;SDS011;21411;50.024;19.220;2023-05-07T14:34:08;6.20;;;5.60;;
35290;SDS011;21411;50.024;19.220;2023-05-07T14:36:35;6.20;;;5.60;;
35290;SDS011;21411;50.024;19.220;2023-05-07T14:39:01;6.10;;;5.50;;
35290;SDS011;21411;50.024;19.220;2023-05-07T14:41:28;6.40;;;5.70;;
35290;SDS011;21411;50.024;19.220;2023-05-07T14:43:55;6.30;;;5.70;;
35290;SDS011;21411;50.024;19.220;2023-05-07T14:46:21;6.20;;;5.50;;
35290;SDS011;21411;50.024;19.220;2023-05-07T14:48:48;6.60;;;5.90;;